createdAt,value
2019-05-14T00:00:57.472Z,1.63
2019-05-14T00:03:27.338Z,1.60
2019-05-14T00:05:57.841Z,1.70
2019-05-14T00:08:27.779Z,2.13
2019-05-14T00:10:57.550Z,1.60
2019-05-14T00:13:27.631Z,2.30
2019-05-14T00:15:58.162Z,1.53
2019-05-14T00:18:28.227Z,2.07
2019-05-14T00:20:58.372Z,1.90
2019-05-14T00:23:28.348Z,2.00
2019-05-14T00:25:58.833Z,1.80
2019-05-14T00:28:31.562Z,2.00
2019-05-14T00:31:02.863Z,1.87
2019-05-14T00:33:33.241Z,1.93
2019-05-14T00:36:03.605Z,1.80
2019-05-14T00:38:33.793Z,1.70
2019-05-14T00:41:04.009Z,1.83
2019-05-14T00:43:34.146Z,2.23
2019-05-14T00:46:04.651Z,1.77
2019-05-14T00:48:34.275Z,1.80
2019-05-14T00:51:04.314Z,1.80
2019-05-14T00:53:34.744Z,1.77
2019-05-14T00:56:04.771Z,1.50
2019-05-14T00:58:34.639Z,1.83
2019-05-14T01:01:04.818Z,2.17
2019-05-14T01:03:34.721Z,1.73
2019-05-14T01:06:04.943Z,1.40
2019-05-14T01:08:34.875Z,1.90
2019-05-14T01:11:04.713Z,2.10
2019-05-14T01:13:34.553Z,1.53
2019-05-14T01:16:04.677Z,1.60
2019-05-14T01:18:34.799Z,1.70
2019-05-14T01:21:04.619Z,2.20
2019-05-14T01:23:34.282Z,1.83
2019-05-14T01:26:04.443Z,2.30
2019-05-14T01:28:34.284Z,1.70
2019-05-14T01:31:04.154Z,2.10
2019-05-14T01:33:33.987Z,2.20
2019-05-14T01:36:04.366Z,1.53
2019-05-14T01:38:34.996Z,1.90
2019-05-14T01:41:05.618Z,1.70
2019-05-14T01:43:35.641Z,2.13
2019-05-14T01:46:05.781Z,1.83
2019-05-14T01:48:35.656Z,1.73
2019-05-14T01:51:06.210Z,2.13
2019-05-14T01:53:36.026Z,2.60
2019-05-14T01:56:05.950Z,2.00
2019-05-14T01:58:36.055Z,2.10
2019-05-14T02:01:06.069Z,2.27
2019-05-14T02:03:36.345Z,2.43
2019-05-14T02:06:06.207Z,2.30
2019-05-14T02:08:36.368Z,2.27
2019-05-14T02:11:06.030Z,2.30
2019-05-14T02:13:35.783Z,2.67
2019-05-14T02:16:05.792Z,2.60
2019-05-14T02:18:36.010Z,1.93
2019-05-14T02:21:07.010Z,2.07
2019-05-14T02:23:37.181Z,2.50
2019-05-14T02:26:07.418Z,1.93
2019-05-14T02:28:37.120Z,2.37
2019-05-14T02:31:09.450Z,2.40
2019-05-14T02:33:39.869Z,2.10
2019-05-14T02:36:10.577Z,2.60
2019-05-14T02:38:40.966Z,2.00
2019-05-14T02:41:10.653Z,2.80
2019-05-14T02:43:41.141Z,2.57
2019-05-14T02:46:16.904Z,3.90
2019-05-14T02:48:42.912Z,2.47
2019-05-14T02:51:12.976Z,2.60
2019-05-14T02:53:43.474Z,2.00
2019-05-14T02:56:13.608Z,2.73
2019-05-14T02:58:43.601Z,2.77
2019-05-14T03:01:13.780Z,2.43
2019-05-14T03:03:44.474Z,2.37
2019-05-14T03:06:14.612Z,3.20
2019-05-14T03:08:44.843Z,2.97
2019-05-14T03:11:15.112Z,2.77
2019-05-14T03:13:45.240Z,3.30
2019-05-14T03:16:25.916Z,3.37
2019-05-14T03:18:49.940Z,3.60
2019-05-14T03:21:19.832Z,3.13
2019-05-14T03:23:49.973Z,3.30
2019-05-14T03:26:20.082Z,3.80
2019-05-14T03:28:50.092Z,3.30
2019-05-14T03:31:22.410Z,3.10
2019-05-14T03:33:52.813Z,3.73
2019-05-14T03:36:26.401Z,4.10
2019-05-14T03:38:54.356Z,2.93
2019-05-14T03:41:24.326Z,3.30
2019-05-14T03:43:54.053Z,2.90
2019-05-14T03:46:41.140Z,3.57
2019-05-14T03:48:55.493Z,4.87
2019-05-14T03:51:25.762Z,3.87
2019-05-14T03:54:05.590Z,4.03
2019-05-14T03:56:29.677Z,3.63
2019-05-14T03:58:59.949Z,3.50
2019-05-14T04:01:30.417Z,4.00
2019-05-14T04:04:01.067Z,3.83
2019-05-14T04:06:32.197Z,3.83
2019-05-14T04:09:03.251Z,3.40
2019-05-14T04:11:35.100Z,3.57
2019-05-14T04:14:05.416Z,4.33
2019-05-14T04:16:39.878Z,4.40
2019-05-14T04:19:10.468Z,3.83
2019-05-14T04:21:41.296Z,3.70
2019-05-14T04:24:14.805Z,4.30
2019-05-14T04:27:00.994Z,4.33
2019-05-14T04:29:20.940Z,4.00
2019-05-14T04:31:52.089Z,4.43
2019-05-14T04:34:21.969Z,3.87
2019-05-14T04:36:52.308Z,3.70
2019-05-14T04:39:22.414Z,3.77
2019-05-14T04:41:52.842Z,3.70
2019-05-14T04:44:22.966Z,3.97
2019-05-14T04:46:53.339Z,4.90
2019-05-14T04:49:23.122Z,4.40
2019-05-14T04:51:53.059Z,5.57
2019-05-14T04:54:23.294Z,4.60
2019-05-14T04:56:53.949Z,5.07
2019-05-14T04:59:23.787Z,4.50
2019-05-14T05:01:53.567Z,4.60
2019-05-14T05:04:23.592Z,5.40
2019-05-14T05:06:53.225Z,4.67
2019-05-14T05:09:22.944Z,4.37
2019-05-14T05:11:52.916Z,4.17
2019-05-14T05:14:23.878Z,4.77
2019-05-14T05:29:18.710Z,4.30
2019-05-14T05:31:48.922Z,4.17
2019-05-14T05:34:19.238Z,4.17
2019-05-14T05:36:49.202Z,5.00
2019-05-14T05:39:19.144Z,4.70
2019-05-14T05:41:49.405Z,4.10
2019-05-14T05:44:19.273Z,4.90
2019-05-14T05:46:49.567Z,4.77
2019-05-14T05:49:19.383Z,4.80
2019-05-14T05:51:50.500Z,4.30
2019-05-14T05:54:20.359Z,3.97
2019-05-14T05:56:50.155Z,4.33
2019-05-14T06:09:18.779Z,4.20
2019-05-14T06:29:18.962Z,4.00
2019-05-14T06:31:49.498Z,4.90
2019-05-14T06:34:19.943Z,3.70
2019-05-14T06:36:49.888Z,4.00
2019-05-14T06:39:20.527Z,4.17
2019-05-14T06:41:50.174Z,4.10
2019-05-14T06:44:20.005Z,3.80
2019-05-14T06:46:52.375Z,3.53
2019-05-14T06:49:21.207Z,3.77
2019-05-14T06:51:50.997Z,3.70
2019-05-14T06:54:20.957Z,4.63
2019-05-14T06:56:50.976Z,3.93
2019-05-14T06:59:21.156Z,4.63
2019-05-14T07:01:50.981Z,3.50
2019-05-14T07:04:21.012Z,4.20
2019-05-14T07:06:50.702Z,3.50
2019-05-14T07:09:20.495Z,3.40
2019-05-14T07:11:50.736Z,3.40
2019-05-14T07:14:20.434Z,3.73
2019-05-14T07:24:19.688Z,3.60
2019-05-14T07:26:49.647Z,3.60
2019-05-14T07:29:19.461Z,3.33
2019-05-14T07:31:49.227Z,3.83
2019-05-14T07:34:19.531Z,3.23
2019-05-14T07:36:49.323Z,3.20
2019-05-14T07:39:19.180Z,3.20
2019-05-14T07:41:48.811Z,3.27
2019-05-14T07:44:18.561Z,2.90
2019-05-14T07:46:48.596Z,3.07
2019-05-14T07:49:18.576Z,3.43
2019-05-14T07:51:48.362Z,3.20
2019-05-14T07:54:19.535Z,3.50
2019-05-14T07:56:52.835Z,3.40
2019-05-14T07:59:21.234Z,3.13
2019-05-14T08:01:51.747Z,2.60
2019-05-14T08:04:21.547Z,3.00
2019-05-14T08:06:51.712Z,3.10
2019-05-14T08:09:21.506Z,3.50
2019-05-14T08:12:12.637Z,3.17
2019-05-14T08:14:55.717Z,2.93
2019-05-14T08:17:13.178Z,3.93
2019-05-14T08:19:43.236Z,2.90
2019-05-14T08:22:13.094Z,2.73
2019-05-14T08:24:42.984Z,3.50
2019-05-14T08:27:12.995Z,3.13
2019-05-14T08:29:43.219Z,2.90
2019-05-14T08:32:12.960Z,2.97
2019-05-14T08:34:42.634Z,3.27
2019-05-14T08:59:39.773Z,2.77
2019-05-14T09:02:10.818Z,2.80
2019-05-14T09:17:09.915Z,2.60
2019-05-14T09:19:57.187Z,2.40
2019-05-14T09:22:11.637Z,2.58
2019-05-14T09:24:41.298Z,3.10
2019-05-14T09:27:11.225Z,2.50
2019-05-14T09:29:41.079Z,2.33
2019-05-14T09:32:10.845Z,2.67
2019-05-14T09:34:40.905Z,3.30
2019-05-14T09:37:11.623Z,3.60
2019-05-14T09:39:41.604Z,4.10
2019-05-14T09:42:11.535Z,3.97
2019-05-14T09:44:41.339Z,4.33
2019-05-14T09:47:11.096Z,4.00
2019-05-14T09:49:41.184Z,4.20
2019-05-14T09:52:11.451Z,3.80
2019-05-14T09:54:43.972Z,3.80
2019-05-14T09:57:12.614Z,3.50
2019-05-14T09:59:42.483Z,4.23
2019-05-14T10:02:12.268Z,3.63
2019-05-14T10:04:42.103Z,3.97
2019-05-14T10:07:15.201Z,3.70
2019-05-14T10:09:43.487Z,3.83
2019-05-14T10:12:13.664Z,4.07
2019-05-14T10:14:43.501Z,3.40
2019-05-14T10:17:13.280Z,3.70
2019-05-14T10:19:43.105Z,3.90
2019-05-14T10:22:13.106Z,4.00
2019-05-14T10:24:42.955Z,3.90
2019-05-14T10:27:12.636Z,4.17
2019-05-14T10:29:42.645Z,4.23
2019-05-14T10:32:12.434Z,3.50
2019-05-14T10:34:42.480Z,3.77
2019-05-14T10:37:12.376Z,3.50
2019-05-14T10:39:42.324Z,3.30
2019-05-14T10:42:12.398Z,3.40
2019-05-14T10:44:42.263Z,3.37
2019-05-14T10:47:12.035Z,3.70
2019-05-14T10:49:41.734Z,4.10
2019-05-14T10:52:12.107Z,3.60
2019-05-14T10:54:54.989Z,3.10
2019-05-14T10:57:14.407Z,3.70
2019-05-14T10:59:44.055Z,3.67
2019-05-14T11:02:14.285Z,3.50
2019-05-14T11:04:44.437Z,3.30
2019-05-14T11:07:14.121Z,3.23
2019-05-14T11:09:43.896Z,3.40
2019-05-14T11:12:13.733Z,3.77
2019-05-14T11:14:43.624Z,4.27
2019-05-14T11:17:13.858Z,3.30
2019-05-14T11:19:44.087Z,2.97
2019-05-14T11:22:13.950Z,3.30
2019-05-14T11:24:43.614Z,4.13
2019-05-14T11:27:13.270Z,3.90
2019-05-14T11:29:43.106Z,4.07
2019-05-14T11:32:13.043Z,3.47
2019-05-14T11:34:42.955Z,3.87
2019-05-14T11:37:12.899Z,2.83
2019-05-14T11:39:42.759Z,3.23
2019-05-14T11:42:12.627Z,3.27
2019-05-14T11:44:42.383Z,4.90
2019-05-14T11:47:12.898Z,4.00
2019-05-14T11:49:43.109Z,3.67
2019-05-14T11:52:13.760Z,4.00
2019-05-14T11:54:43.566Z,3.90
2019-05-14T11:57:13.610Z,2.77
2019-05-14T11:59:43.499Z,3.30
2019-05-14T12:02:13.297Z,2.70
2019-05-14T12:04:43.151Z,3.60
2019-05-14T12:07:12.929Z,2.90
2019-05-14T12:09:42.670Z,3.10
2019-05-14T12:12:12.891Z,3.23
2019-05-14T12:14:43.020Z,2.57
2019-05-14T12:17:12.857Z,2.73
2019-05-14T12:19:43.648Z,3.20
2019-05-14T12:22:14.259Z,3.60
2019-05-14T12:24:44.068Z,3.50
2019-05-14T12:27:13.884Z,4.90
2019-05-14T12:29:44.122Z,2.93
2019-05-14T12:32:14.716Z,3.30
2019-05-14T12:34:44.862Z,3.37
2019-05-14T12:37:14.625Z,2.73
2019-05-14T12:39:45.075Z,2.60
2019-05-14T12:42:15.501Z,3.10
2019-05-14T12:44:45.771Z,3.10
2019-05-14T12:47:18.605Z,3.30
2019-05-14T12:49:48.299Z,3.10
2019-05-14T12:52:25.523Z,2.83
2019-05-14T12:54:50.522Z,3.43
2019-05-14T12:57:20.702Z,2.60
2019-05-14T12:59:50.563Z,2.93
2019-05-14T13:02:20.363Z,3.33
2019-05-14T13:04:50.742Z,3.00
2019-05-14T13:07:21.640Z,3.60
2019-05-14T13:09:51.440Z,3.10
2019-05-14T13:12:23.817Z,3.30
2019-05-14T13:14:53.491Z,2.83
2019-05-14T13:17:23.290Z,4.07
2019-05-14T13:19:53.155Z,3.20
2019-05-14T13:22:38.248Z,3.07
2019-05-14T13:24:54.676Z,3.03
2019-05-14T13:27:24.596Z,3.07
2019-05-14T13:29:54.286Z,3.20
2019-05-14T13:32:24.120Z,3.27
2019-05-14T13:34:54.112Z,2.83
2019-05-14T13:37:24.034Z,2.97
2019-05-14T13:39:53.882Z,3.40
2019-05-14T13:42:23.704Z,3.10
2019-05-14T13:44:53.497Z,3.15
2019-05-14T13:47:23.689Z,3.20
2019-05-14T13:49:54.238Z,3.60
2019-05-14T13:52:25.987Z,3.50
2019-05-14T13:59:53.621Z,2.80
2019-05-14T14:02:23.780Z,3.40
2019-05-14T14:04:53.870Z,3.05
2019-05-14T14:37:19.281Z,3.30
2019-05-14T18:37:13.739Z,2.90
2019-05-14T18:39:40.699Z,2.80
2019-05-14T18:42:10.808Z,3.20
2019-05-14T18:44:40.671Z,3.57
2019-05-14T18:47:10.753Z,3.50
2019-05-14T18:49:40.857Z,2.77
2019-05-14T18:52:10.789Z,2.90
2019-05-14T18:54:40.933Z,3.03
2019-05-14T18:57:12.127Z,3.20
2019-05-14T18:59:42.375Z,2.80
2019-05-14T19:02:12.691Z,2.53
2019-05-14T19:04:43.420Z,2.80
2019-05-14T19:07:15.561Z,2.93
2019-05-14T19:09:44.535Z,3.00
2019-05-14T19:12:14.915Z,3.13
2019-05-14T19:14:48.997Z,3.00
2019-05-14T19:17:19.693Z,2.70
2019-05-14T19:19:50.945Z,2.63
2019-05-14T19:22:20.887Z,3.00
2019-05-14T19:24:51.097Z,2.93
2019-05-14T19:27:21.117Z,2.73
2019-05-14T19:29:51.766Z,2.23
2019-05-14T19:32:21.841Z,3.30
2019-05-14T19:34:52.355Z,2.33
2019-05-14T19:37:22.133Z,2.63
2019-05-14T19:39:52.322Z,2.33
2019-05-14T19:42:22.252Z,2.70
2019-05-14T19:44:52.777Z,2.57
2019-05-14T19:47:23.395Z,2.57
2019-05-14T19:49:54.260Z,2.63
2019-05-14T19:52:24.496Z,2.60
2019-05-14T19:54:54.338Z,2.87
2019-05-14T19:57:24.905Z,3.33
2019-05-14T19:59:54.970Z,3.77
2019-05-14T20:02:24.824Z,3.60
2019-05-14T20:04:55.344Z,3.17
2019-05-14T20:07:27.845Z,3.37
2019-05-14T20:09:58.752Z,2.70
2019-05-14T20:12:29.089Z,3.03
2019-05-14T20:14:58.916Z,2.80
2019-05-14T20:17:28.737Z,2.43
2019-05-14T20:19:58.366Z,2.57
2019-05-14T20:22:28.503Z,2.47
2019-05-14T20:24:58.918Z,2.43
2019-05-14T20:27:28.782Z,2.40
2019-05-14T20:29:58.705Z,2.03
2019-05-14T20:32:28.641Z,2.67
2019-05-14T20:34:58.816Z,1.93
2019-05-14T20:37:29.212Z,2.63
2019-05-14T20:39:59.189Z,2.53
2019-05-14T20:42:29.101Z,2.30
2019-05-14T20:44:59.181Z,2.60
2019-05-14T20:47:29.408Z,3.13
2019-05-14T20:49:59.667Z,2.60
2019-05-14T21:22:29.043Z,3.30
2019-05-14T21:24:58.733Z,2.17
2019-05-14T21:27:40.858Z,2.20
2019-05-14T21:30:00.351Z,2.40
2019-05-14T21:32:30.559Z,3.17
2019-05-14T21:35:00.845Z,2.93
2019-05-14T21:37:31.633Z,2.67
2019-05-14T21:40:01.817Z,2.47
2019-05-14T21:42:31.590Z,3.77
2019-05-14T21:45:01.392Z,2.63
2019-05-14T21:47:31.190Z,2.87
2019-05-14T21:50:01.671Z,2.40
2019-05-14T21:52:32.547Z,2.70
2019-05-14T21:55:02.230Z,2.77
2019-05-14T21:57:31.997Z,3.53
2019-05-14T22:00:01.851Z,3.03
2019-05-14T22:02:31.724Z,3.10
2019-05-14T22:05:01.700Z,4.07
2019-05-14T22:07:31.945Z,3.17
2019-05-14T22:12:39.938Z,3.30
2019-05-14T22:15:09.803Z,3.37
2019-05-14T22:17:39.481Z,3.33
2019-05-14T22:20:09.426Z,3.40
2019-05-14T22:22:39.272Z,3.20
2019-05-14T22:25:09.421Z,2.77
2019-05-14T22:27:39.455Z,3.00
2019-05-14T22:30:09.497Z,2.80
2019-05-14T22:32:39.189Z,2.90
2019-05-14T22:35:09.099Z,3.60
2019-05-14T22:37:39.217Z,4.50
2019-05-14T22:40:09.622Z,2.97
2019-05-14T22:42:39.484Z,3.00
2019-05-14T22:45:09.782Z,2.93
2019-05-14T22:47:40.457Z,2.70
2019-05-14T22:50:11.059Z,3.00
2019-05-14T22:52:40.740Z,3.30
2019-05-14T22:55:10.427Z,2.93
2019-05-14T22:57:40.362Z,3.60
2019-05-14T23:00:10.318Z,2.67
2019-05-14T23:02:41.039Z,3.20
2019-05-14T23:05:11.037Z,3.10
2019-05-14T23:07:40.838Z,3.30
2019-05-14T23:10:11.796Z,2.97
2019-05-14T23:12:41.915Z,3.13
2019-05-14T23:15:11.767Z,2.77
2019-05-14T23:17:41.616Z,3.10
2019-05-14T23:20:11.927Z,3.23
2019-05-14T23:22:41.989Z,3.17
2019-05-14T23:25:11.752Z,3.10
2019-05-14T23:27:41.862Z,3.67
2019-05-14T23:30:12.643Z,3.47
2019-05-14T23:32:42.409Z,3.23
2019-05-14T23:35:12.339Z,3.37
2019-05-14T23:37:42.336Z,3.77
2019-05-14T23:40:12.546Z,3.87
2019-05-14T23:42:42.778Z,3.40
2019-05-14T23:45:12.453Z,3.20
2019-05-14T23:47:42.645Z,3.50
2019-05-14T23:50:12.533Z,3.60
2019-05-14T23:52:42.342Z,3.97
2019-05-14T23:55:12.153Z,3.60
2019-05-14T23:57:41.869Z,3.10
